createdAt,value
2022-11-10T07:45:47.046Z,1.75
2022-11-10T07:46:48.475Z,4.35
2022-11-10T07:47:53.968Z,5.70
2022-11-10T07:48:55.374Z,4.60
2022-11-10T07:49:56.686Z,5.80
2022-11-10T07:50:58.043Z,4.43
2022-11-10T07:51:59.370Z,4.18
2022-11-10T07:53:07.950Z,2.80
2022-11-10T07:54:09.388Z,3.40
2022-11-10T07:55:11.114Z,4.57
2022-11-10T07:56:12.622Z,4.90
2022-11-10T07:57:14.032Z,4.25
2022-11-10T07:58:17.355Z,6.82
2022-11-10T07:59:18.755Z,4.40
2022-11-10T08:00:20.139Z,5.20
2022-11-10T08:01:21.503Z,4.63
2022-11-10T08:02:22.957Z,6.53
2022-11-10T08:03:24.650Z,4.85
2022-11-10T08:04:26.174Z,7.97
2022-11-10T08:05:27.750Z,8.90
2022-11-10T08:06:32.240Z,3.50
2022-11-10T08:07:36.462Z,4.10
2022-11-10T08:08:37.937Z,5.22
2022-11-10T08:09:39.298Z,3.20
2022-11-10T08:10:41.626Z,6.35
2022-11-10T08:11:42.962Z,3.67
2022-11-10T08:12:44.280Z,4.25
2022-11-10T08:13:45.615Z,3.97
2022-11-10T08:14:46.999Z,4.18
2022-11-10T08:15:48.573Z,5.75
2022-11-10T08:16:50.517Z,4.47
2022-11-10T08:17:51.997Z,9.25
2022-11-10T08:18:53.531Z,8.52
2022-11-10T08:19:54.900Z,4.45
2022-11-10T08:20:56.304Z,6.88
2022-11-10T08:21:57.648Z,4.63
2022-11-10T08:23:05.922Z,5.93
2022-11-10T08:24:10.828Z,6.57
2022-11-10T08:25:12.346Z,8.30
2022-11-10T08:26:16.571Z,5.60
2022-11-10T08:27:17.900Z,7.20
2022-11-10T08:28:19.886Z,4.60
2022-11-10T08:29:21.329Z,7.88
2022-11-10T08:30:22.769Z,7.22
2022-11-10T08:31:24.529Z,7.18
2022-11-10T08:32:26.021Z,4.65
2022-11-10T08:33:27.367Z,13.00
2022-11-10T08:34:28.736Z,4.75
2022-11-10T08:35:31.353Z,5.15
2022-11-10T08:36:32.812Z,7.70
2022-11-10T08:37:34.223Z,5.80
2022-11-10T08:38:35.807Z,6.15
2022-11-10T08:39:39.570Z,4.20
2022-11-10T08:40:41.844Z,8.90
2022-11-10T08:41:43.238Z,6.75
2022-11-10T08:42:44.675Z,5.60
2022-11-10T08:43:45.998Z,5.80
2022-11-10T08:44:47.444Z,5.95
2022-11-10T08:45:48.947Z,9.57
2022-11-10T08:46:50.953Z,3.67
2022-11-10T08:48:03.962Z,7.35
2022-11-10T08:49:05.378Z,4.50
2022-11-10T08:50:07.890Z,5.85
2022-11-10T08:51:09.340Z,4.47
2022-11-10T08:52:11.301Z,5.78
2022-11-10T08:53:15.098Z,4.53
2022-11-10T08:54:16.500Z,5.95
2022-11-10T08:55:19.997Z,4.47
2022-11-10T08:56:21.572Z,6.55
2022-11-10T08:57:23.081Z,8.68
2022-11-10T08:58:24.532Z,5.25
2022-11-10T08:59:26.125Z,4.57
2022-11-10T09:00:28.650Z,3.53
2022-11-10T09:01:30.116Z,5.22
2022-11-10T09:02:31.979Z,4.07
2022-11-10T09:03:33.301Z,5.18
2022-11-10T09:04:34.707Z,7.53
2022-11-10T09:05:36.736Z,10.63
2022-11-10T09:06:38.144Z,6.93
2022-11-10T09:07:47.831Z,17.08
2022-11-10T09:08:49.374Z,6.60
2022-11-10T09:10:06.049Z,5.90
2022-11-10T09:11:08.376Z,4.03
2022-11-10T09:12:09.705Z,5.25
2022-11-10T09:13:12.964Z,3.63
2022-11-10T09:14:14.756Z,5.40
2022-11-10T09:15:16.167Z,5.38
2022-11-10T09:16:17.693Z,6.95
2022-11-10T09:17:19.037Z,3.50
2022-11-10T09:18:20.359Z,2.75
2022-11-10T09:19:21.697Z,6.07
2022-11-10T09:20:23.155Z,2.90
2022-11-10T09:21:24.511Z,3.97
2022-11-10T09:22:26.005Z,6.80
2022-11-10T09:23:28.084Z,4.80
2022-11-10T09:24:31.513Z,2.80
2022-11-10T09:25:33.448Z,4.75
2022-11-10T09:26:34.885Z,7.05
2022-11-10T09:27:39.174Z,7.22
2022-11-10T09:28:40.530Z,6.82
2022-11-10T09:29:42.046Z,7.70
2022-11-10T09:30:46.744Z,8.68
2022-11-10T09:31:48.419Z,5.63
2022-11-10T09:32:57.632Z,6.85
2022-11-10T09:33:59.225Z,4.90
2022-11-10T09:35:01.634Z,5.50
2022-11-10T09:36:03.057Z,4.65
2022-11-10T09:37:04.543Z,4.82
2022-11-10T09:38:06.632Z,5.20
2022-11-10T09:39:08.005Z,8.98
2022-11-10T09:40:23.326Z,5.03
2022-11-10T09:41:24.806Z,4.35
2022-11-10T09:42:41.267Z,4.55
2022-11-10T09:43:47.502Z,11.30
2022-11-10T09:45:00.027Z,5.00
2022-11-10T09:46:06.267Z,6.28
2022-11-10T09:47:50.591Z,6.13
2022-11-10T09:48:56.188Z,11.95
2022-11-10T09:50:00.884Z,6.55
2022-11-10T09:51:07.001Z,3.65
2022-11-10T09:52:12.390Z,5.00
2022-11-10T09:53:21.548Z,5.15
2022-11-10T09:54:47.741Z,3.28
2022-11-10T09:55:52.521Z,8.15
2022-11-10T09:57:00.170Z,8.32
2022-11-10T09:58:02.510Z,4.85
2022-11-10T09:59:19.344Z,8.63
2022-11-10T10:00:20.982Z,10.68
2022-11-10T10:01:29.111Z,5.75
2022-11-10T10:02:48.091Z,7.00
2022-11-10T10:04:13.738Z,4.57
2022-11-10T10:05:29.269Z,5.78
2022-11-10T10:06:57.157Z,3.97
2022-11-10T10:08:05.805Z,8.23
2022-11-10T10:09:07.086Z,8.05
2022-11-10T10:10:25.930Z,6.32
2022-11-10T10:11:36.398Z,5.63
2022-11-10T10:13:10.116Z,4.57
2022-11-10T10:14:31.088Z,6.22
2022-11-10T10:15:42.213Z,2.85
2022-11-10T10:16:49.488Z,6.75
2022-11-10T10:18:06.575Z,3.15
2022-11-10T10:19:46.996Z,7.55
2022-11-10T10:20:57.545Z,9.95
2022-11-10T10:22:20.320Z,8.45
2022-11-10T10:24:07.064Z,5.15
2022-11-10T10:25:02.080Z,5.10
2022-11-10T10:26:03.894Z,5.43
2022-11-10T10:27:10.251Z,6.40
2022-11-10T10:28:40.085Z,6.25
2022-11-10T10:29:46.943Z,5.65
2022-11-10T10:30:48.620Z,4.95
2022-11-10T10:31:51.788Z,4.75
2022-11-10T10:33:00.128Z,6.53
2022-11-10T10:34:02.508Z,7.60
2022-11-10T10:35:04.157Z,4.90
2022-11-10T10:36:14.385Z,8.38
2022-11-10T10:37:35.583Z,5.75
2022-11-10T10:38:40.068Z,8.90
2022-11-10T10:39:46.374Z,4.55
2022-11-10T10:40:50.600Z,3.15
2022-11-10T10:41:52.350Z,8.52
2022-11-10T10:42:54.508Z,7.40
2022-11-10T10:43:58.221Z,6.78
2022-11-10T10:45:16.597Z,9.20
2022-11-10T10:46:20.251Z,5.50
2022-11-10T10:47:36.888Z,9.68
2022-11-10T10:48:38.221Z,4.63
2022-11-10T10:49:42.462Z,5.40
2022-11-10T10:50:43.909Z,6.10
2022-11-10T10:51:45.712Z,8.48
2022-11-10T10:53:07.873Z,6.75
2022-11-10T10:54:36.268Z,3.50
2022-11-10T10:55:41.366Z,5.35
2022-11-10T10:56:42.702Z,7.15
2022-11-10T10:57:51.905Z,10.38
2022-11-10T10:59:00.315Z,3.10
2022-11-10T11:00:21.495Z,6.45
2022-11-10T11:01:30.666Z,5.18
2022-11-10T11:02:35.572Z,6.85
2022-11-10T11:03:45.465Z,8.57
2022-11-10T11:04:46.789Z,8.05
2022-11-10T11:06:07.100Z,2.70
2022-11-10T11:07:24.408Z,3.53
2022-11-10T11:08:26.955Z,4.30
2022-11-10T11:09:38.223Z,4.30
2022-11-10T11:10:46.008Z,5.75
2022-11-10T11:12:10.384Z,6.82
2022-11-10T11:13:21.655Z,5.22
2022-11-10T11:14:26.643Z,3.55
2022-11-10T11:15:30.327Z,4.15
2022-11-10T11:16:56.349Z,5.72
2022-11-10T11:18:03.692Z,4.50
2022-11-10T11:19:05.146Z,6.20
2022-11-10T11:20:14.421Z,3.33
2022-11-10T11:21:37.238Z,3.92
2022-11-10T11:22:49.085Z,5.88
2022-11-10T11:24:12.128Z,4.38
2022-11-10T11:25:33.305Z,5.45
2022-11-10T11:26:51.416Z,4.47
2022-11-10T11:28:11.553Z,10.63
2022-11-10T11:29:55.732Z,1.98
2022-11-10T11:31:06.277Z,6.75
2022-11-10T11:32:33.618Z,9.02
2022-11-10T11:33:42.460Z,11.25
2022-11-10T11:35:06.981Z,4.60
2022-11-10T11:36:17.871Z,6.38
2022-11-10T11:37:46.703Z,5.65
2022-11-10T11:38:58.642Z,14.55
2022-11-10T11:40:24.098Z,10.05
2022-11-10T11:41:31.541Z,7.82
2022-11-10T11:42:41.977Z,3.58
2022-11-10T11:43:55.570Z,3.80
2022-11-10T11:45:18.857Z,6.60
2022-11-10T11:46:38.568Z,3.58
2022-11-10T11:47:52.860Z,7.00
2022-11-10T11:49:25.407Z,5.13
2022-11-10T11:50:35.889Z,5.50
2022-11-10T11:51:49.629Z,4.95
2022-11-10T11:53:12.833Z,7.30
2022-11-10T11:54:45.461Z,2.80
2022-11-10T11:56:21.200Z,6.07
2022-11-10T11:57:58.993Z,8.43
2022-11-10T11:59:10.024Z,4.88
2022-11-10T12:00:17.306Z,4.75
2022-11-10T12:01:55.531Z,2.75
2022-11-10T12:03:33.543Z,7.10
2022-11-10T12:04:49.903Z,5.35
2022-11-10T12:06:29.204Z,7.78
2022-11-10T12:07:59.873Z,4.30
2022-11-10T12:09:11.955Z,7.82
2022-11-10T12:10:37.271Z,9.20
2022-11-10T12:12:09.373Z,3.85
2022-11-10T12:13:37.590Z,5.22
2022-11-10T12:14:56.914Z,5.95
2022-11-10T12:15:58.185Z,3.05
2022-11-10T12:17:33.442Z,3.28
2022-11-10T12:18:50.967Z,9.15
2022-11-10T12:20:09.275Z,8.85
2022-11-10T12:21:23.889Z,6.68
2022-11-10T12:22:33.980Z,3.03
2022-11-10T12:23:38.083Z,5.97
2022-11-10T12:25:07.312Z,4.00
2022-11-10T12:26:52.319Z,5.90
2022-11-10T12:28:09.526Z,10.85
2022-11-10T12:29:48.871Z,3.90
2022-11-10T12:31:00.560Z,6.93
2022-11-10T12:32:21.498Z,4.15
2022-11-10T12:33:44.359Z,4.50
2022-11-10T12:35:05.687Z,6.38
2022-11-10T12:36:15.759Z,12.40
2022-11-10T12:37:28.495Z,6.82
2022-11-10T12:38:41.960Z,7.15
2022-11-10T12:39:53.741Z,11.77
2022-11-10T12:41:07.453Z,3.90
2022-11-10T12:42:18.189Z,7.70
2022-11-10T12:43:35.061Z,3.22
2022-11-10T12:44:58.159Z,9.50
2022-11-10T12:46:04.756Z,5.85
2022-11-10T12:47:14.836Z,3.72
2022-11-10T12:48:17.560Z,6.32
2022-11-10T12:49:33.904Z,4.60
2022-11-10T12:50:58.389Z,4.20
2022-11-10T12:52:17.755Z,10.10
2022-11-10T12:53:26.189Z,3.53
2022-11-10T12:54:28.659Z,5.20
2022-11-10T12:55:44.515Z,9.70
2022-11-10T12:56:51.892Z,3.17
2022-11-10T12:57:53.570Z,5.20
2022-11-10T12:59:23.392Z,4.53
2022-11-10T13:00:31.703Z,4.78
2022-11-10T13:01:33.352Z,5.00
2022-11-10T13:02:46.889Z,7.15
2022-11-10T13:03:58.419Z,11.25
2022-11-10T13:05:10.380Z,7.60
2022-11-10T13:06:28.708Z,13.20
2022-11-10T13:07:30.145Z,4.45
2022-11-10T13:08:44.979Z,5.97
2022-11-10T13:09:46.423Z,4.13
2022-11-10T13:10:52.704Z,11.68
2022-11-10T13:12:04.582Z,6.55
2022-11-10T13:13:06.050Z,4.60
2022-11-10T13:14:27.823Z,4.30
2022-11-10T13:15:37.915Z,5.38
2022-11-10T13:16:40.430Z,3.58
2022-11-10T13:17:41.713Z,4.93
2022-11-10T13:18:43.026Z,4.53
2022-11-10T13:19:53.505Z,5.40
2022-11-10T13:20:55.725Z,5.38
2022-11-10T13:22:00.614Z,5.38
2022-11-10T13:23:21.277Z,5.05
2022-11-10T13:24:36.610Z,5.35
2022-11-10T13:25:42.282Z,9.20
2022-11-10T13:26:43.772Z,3.17
2022-11-10T13:27:54.071Z,8.00
2022-11-10T13:28:57.858Z,4.63
2022-11-10T13:30:00.114Z,2.92
2022-11-10T13:31:30.323Z,4.25
2022-11-10T13:32:35.402Z,8.45
2022-11-10T13:33:38.293Z,4.47
2022-11-10T13:34:44.235Z,5.38
2022-11-10T13:35:55.637Z,7.18
2022-11-10T13:36:57.893Z,4.72
2022-11-10T13:37:59.369Z,5.47
2022-11-10T13:39:26.919Z,4.53
2022-11-10T13:40:31.539Z,5.10
2022-11-10T13:41:34.685Z,3.90
2022-11-10T13:42:36.228Z,8.73
2022-11-10T13:43:48.869Z,3.22
2022-11-10T13:44:52.341Z,6.47
2022-11-10T13:46:02.976Z,8.63
2022-11-10T13:47:39.706Z,3.70
2022-11-10T13:49:19.647Z,2.80
2022-11-10T13:50:30.415Z,6.05
2022-11-10T13:51:41.528Z,2.92
2022-11-10T13:53:05.684Z,12.90
2022-11-10T13:54:30.088Z,3.95
2022-11-10T13:55:47.253Z,2.15
2022-11-10T13:57:04.615Z,3.67
2022-11-10T13:58:14.512Z,2.92
2022-11-10T13:59:22.715Z,4.40
2022-11-10T14:00:27.762Z,5.70
2022-11-10T14:01:30.285Z,6.78
2022-11-10T14:02:34.794Z,4.55
2022-11-10T14:04:05.380Z,5.05
2022-11-10T14:05:09.294Z,4.53
2022-11-10T14:06:15.737Z,5.00
2022-11-10T14:07:18.964Z,2.90
2022-11-10T14:08:25.798Z,5.28
2022-11-10T14:09:42.096Z,11.18
2022-11-10T14:10:58.766Z,6.57
2022-11-10T14:12:13.308Z,3.88
2022-11-10T14:13:23.716Z,4.68
2022-11-10T14:14:35.971Z,3.17
2022-11-10T14:15:46.092Z,1.50
2022-11-10T14:16:47.725Z,2.70
2022-11-10T14:17:51.831Z,4.07
2022-11-10T14:18:58.896Z,6.80
2022-11-10T14:20:01.243Z,7.25
2022-11-10T14:21:03.565Z,3.03
2022-11-10T14:22:21.668Z,10.23
2022-11-10T14:23:31.331Z,6.03
2022-11-10T14:24:39.167Z,4.97
2022-11-10T14:25:43.971Z,3.15
2022-11-10T14:26:52.016Z,4.47
2022-11-10T14:27:57.913Z,4.63
2022-11-10T14:29:20.250Z,3.05
2022-11-10T14:30:21.714Z,8.50
2022-11-10T14:31:25.320Z,5.00
2022-11-10T14:32:26.847Z,6.13
2022-11-10T14:33:28.225Z,2.53
2022-11-10T14:34:31.789Z,3.05
2022-11-10T14:35:44.635Z,6.10
2022-11-10T14:36:59.013Z,3.05
2022-11-10T14:38:02.757Z,4.20
2022-11-10T14:39:06.664Z,3.03
2022-11-10T14:40:18.963Z,3.80
2022-11-10T14:41:22.765Z,4.25
2022-11-10T14:42:26.721Z,6.85
2022-11-10T14:43:29.935Z,5.32
2022-11-10T14:44:33.064Z,3.85
2022-11-10T14:45:34.566Z,6.45
2022-11-10T14:46:38.240Z,4.45
2022-11-10T14:47:39.802Z,5.78
2022-11-10T14:48:41.249Z,8.55
2022-11-10T14:49:43.855Z,2.60
2022-11-10T14:50:45.404Z,11.38
2022-11-10T14:51:46.990Z,2.85
2022-11-10T14:52:53.898Z,3.55
2022-11-10T14:53:57.272Z,4.90
2022-11-10T14:54:59.255Z,8.38
2022-11-10T14:56:03.604Z,5.63
2022-11-10T14:57:06.054Z,3.88
2022-11-10T14:58:15.255Z,15.55
2022-11-10T14:59:17.852Z,11.15
2022-11-10T15:00:25.219Z,6.97
2022-11-10T15:01:33.822Z,8.48
2022-11-10T15:02:36.064Z,11.52
2022-11-10T15:03:42.371Z,9.35
2022-11-10T15:04:46.178Z,6.05
2022-11-10T15:05:48.850Z,3.05
2022-11-10T15:06:53.263Z,5.40
2022-11-10T15:07:56.513Z,9.27
2022-11-10T15:09:01.736Z,5.50
2022-11-10T15:10:14.536Z,11.18
2022-11-10T15:11:47.087Z,5.10
2022-11-10T15:13:19.791Z,7.15
2022-11-10T15:14:49.561Z,3.47
2022-11-10T15:15:53.678Z,6.45
2022-11-10T15:17:06.152Z,7.65
2022-11-10T15:18:24.622Z,8.52
2022-11-10T15:19:31.455Z,7.38
2022-11-10T15:20:41.451Z,5.90
2022-11-10T15:21:42.805Z,8.40
2022-11-10T15:22:44.456Z,10.07
2022-11-10T15:23:52.329Z,12.13
2022-11-10T15:24:53.715Z,8.00
2022-11-10T15:25:55.381Z,10.52
2022-11-10T15:26:57.018Z,6.22
2022-11-10T15:28:05.548Z,11.90
2022-11-10T15:29:21.478Z,6.63
2022-11-10T15:30:24.707Z,10.07
2022-11-10T15:31:31.816Z,8.35
2022-11-10T15:32:42.468Z,7.13
2022-11-10T15:33:51.171Z,9.15
2022-11-10T15:34:53.165Z,9.00
2022-11-10T15:35:56.311Z,7.70
2022-11-10T15:37:27.392Z,8.68
2022-11-10T15:38:32.259Z,6.30
2022-11-10T15:39:33.809Z,11.50
2022-11-10T15:40:43.068Z,5.20
2022-11-10T15:41:48.924Z,4.10
2022-11-10T15:43:27.556Z,13.85
2022-11-10T15:44:29.125Z,11.40
2022-11-10T15:45:30.459Z,5.65
2022-11-10T15:46:31.842Z,12.10
2022-11-10T15:47:33.514Z,4.75
2022-11-10T15:48:41.719Z,10.15
2022-11-10T15:49:43.883Z,7.07
2022-11-10T15:50:51.011Z,10.48
2022-11-10T15:51:57.515Z,11.40
2022-11-10T15:52:59.216Z,12.80
2022-11-10T15:54:00.559Z,10.70
2022-11-10T15:55:01.897Z,10.75
2022-11-10T15:56:03.480Z,8.13
2022-11-10T15:57:10.685Z,5.28
2022-11-10T15:58:20.643Z,14.00
2022-11-10T15:59:22.350Z,6.18
2022-11-10T16:00:24.135Z,5.30
2022-11-10T16:01:25.774Z,8.32
2022-11-10T16:02:27.209Z,8.48
2022-11-10T16:03:31.453Z,3.85
2022-11-10T16:04:32.780Z,7.70
2022-11-10T16:05:34.133Z,7.85
2022-11-10T16:06:35.554Z,5.43
2022-11-10T16:07:37.146Z,7.30
2022-11-10T16:08:38.650Z,8.35
2022-11-10T16:09:40.101Z,10.57
2022-11-10T16:10:46.932Z,12.00
2022-11-10T16:11:48.397Z,4.30
2022-11-10T16:12:49.838Z,11.50
2022-11-10T16:13:52.805Z,10.38
2022-11-10T16:14:55.039Z,8.77
2022-11-10T16:15:59.339Z,9.70
2022-11-10T16:17:03.626Z,8.23
2022-11-10T16:18:11.839Z,11.95
2022-11-10T16:19:13.276Z,7.38
2022-11-10T16:20:15.127Z,7.35
2022-11-10T16:21:19.922Z,6.72
2022-11-10T16:22:21.307Z,6.97
2022-11-10T16:23:23.818Z,6.80
2022-11-10T16:24:25.152Z,7.63
2022-11-10T16:25:27.927Z,7.43
2022-11-10T16:26:30.389Z,6.35
2022-11-10T16:27:31.872Z,6.72
2022-11-10T16:28:34.248Z,4.93
2022-11-10T16:29:36.635Z,3.60
2022-11-10T16:30:38.194Z,8.18
2022-11-10T16:31:39.544Z,13.93
2022-11-10T16:32:40.909Z,15.35
2022-11-10T16:33:42.366Z,6.70
2022-11-10T16:34:43.752Z,12.00
2022-11-10T16:35:45.281Z,8.00
2022-11-10T16:36:47.522Z,6.47
2022-11-10T16:37:49.139Z,4.55
2022-11-10T16:38:53.062Z,5.30
2022-11-10T16:39:54.460Z,9.10
2022-11-10T16:41:00.913Z,9.45
2022-11-10T16:42:02.373Z,7.97
2022-11-10T16:43:03.804Z,13.60
2022-11-10T16:44:05.987Z,6.55
2022-11-10T16:45:20.657Z,9.90
2022-11-10T16:46:24.590Z,11.55
2022-11-10T16:47:27.618Z,6.05
2022-11-10T16:48:32.592Z,9.40
2022-11-10T16:49:35.711Z,5.15
2022-11-10T16:50:41.102Z,8.27
2022-11-10T16:51:48.594Z,11.70
2022-11-10T16:52:50.562Z,17.30
2022-11-10T16:53:53.545Z,5.95
2022-11-10T16:54:54.944Z,8.63
2022-11-10T16:56:01.026Z,8.85
2022-11-10T16:57:02.550Z,7.13
2022-11-10T16:58:03.940Z,9.07
2022-11-10T16:59:05.320Z,17.55
2022-11-10T17:00:07.360Z,11.25
2022-11-10T17:01:21.271Z,16.58
2022-11-10T17:02:35.281Z,13.73
2022-11-10T17:03:40.179Z,11.43
2022-11-10T17:04:41.526Z,7.63
2022-11-10T17:05:43.360Z,10.20
2022-11-10T17:06:45.063Z,9.02
2022-11-10T17:07:47.138Z,7.65
2022-11-10T17:08:51.261Z,13.65
2022-11-10T17:09:52.810Z,8.93
2022-11-10T17:10:56.774Z,11.50
2022-11-10T17:11:58.174Z,7.13
2022-11-10T17:12:59.515Z,11.10
2022-11-10T17:14:00.850Z,9.93
2022-11-10T17:15:02.299Z,8.65
2022-11-10T17:16:07.710Z,7.47
2022-11-10T17:17:18.372Z,6.78
2022-11-10T17:18:26.907Z,10.75
2022-11-10T17:19:28.304Z,15.52
2022-11-10T17:20:34.422Z,14.43
2022-11-10T17:21:36.510Z,10.90
2022-11-10T17:22:38.050Z,11.45
2022-11-10T17:23:43.278Z,8.98
2022-11-10T17:24:47.790Z,8.07
2022-11-10T17:25:50.461Z,8.73
2022-11-10T17:26:51.860Z,13.05
2022-11-10T17:27:53.859Z,14.65
2022-11-10T17:28:59.536Z,19.48
2022-11-10T17:30:01.196Z,11.40
2022-11-10T17:31:03.254Z,16.15
2022-11-10T17:32:04.917Z,12.40
2022-11-10T17:33:06.939Z,11.70
2022-11-10T17:34:11.342Z,11.45
2022-11-10T17:35:13.045Z,8.38
2022-11-10T17:36:18.632Z,17.63
2022-11-10T17:37:20.045Z,15.40
2022-11-10T17:38:24.410Z,19.88
2022-11-10T17:39:29.659Z,16.50
2022-11-10T17:40:31.180Z,16.55
2022-11-10T17:41:33.982Z,20.80
2022-11-10T17:42:35.352Z,8.80
2022-11-10T17:43:38.567Z,20.73
2022-11-10T17:44:41.796Z,16.02
2022-11-10T17:45:43.534Z,15.85
2022-11-10T17:46:45.058Z,24.88
2022-11-10T17:47:48.253Z,19.17
2022-11-10T17:48:49.936Z,11.43
2022-11-10T17:49:51.394Z,11.68
2022-11-10T17:50:52.736Z,12.68
2022-11-10T17:51:54.111Z,9.60
2022-11-10T17:52:55.563Z,14.65
2022-11-10T17:53:58.834Z,16.10
2022-11-10T17:55:00.216Z,14.07
2022-11-10T17:56:01.545Z,19.65
2022-11-10T17:57:04.422Z,25.15
2022-11-10T17:58:05.878Z,37.25
2022-11-10T17:59:07.432Z,37.05
2022-11-10T18:00:09.693Z,37.63
2022-11-10T18:01:18.005Z,35.50
2022-11-10T18:02:19.395Z,31.92
2022-11-10T18:03:22.485Z,28.45
2022-11-10T18:04:24.101Z,22.35
2022-11-10T18:05:25.510Z,31.17
2022-11-10T18:06:26.918Z,18.70
2022-11-10T18:07:28.248Z,19.67
2022-11-10T18:08:29.570Z,20.15
2022-11-10T18:09:30.901Z,17.48
2022-11-10T18:10:32.252Z,17.48
2022-11-10T18:11:37.196Z,18.42
2022-11-10T18:12:38.754Z,15.98
2022-11-10T18:13:41.844Z,17.35
2022-11-10T18:14:43.164Z,9.57
2022-11-10T18:15:46.302Z,15.20
2022-11-10T18:16:47.768Z,12.15
2022-11-10T18:17:49.120Z,19.45
2022-11-10T18:18:50.512Z,13.35
2022-11-10T18:19:51.897Z,15.48
2022-11-10T18:20:56.435Z,11.05
2022-11-10T18:21:57.812Z,24.00
2022-11-10T18:22:59.695Z,19.73
2022-11-10T18:24:01.982Z,10.45
2022-11-10T18:25:04.161Z,8.18
2022-11-10T18:26:11.835Z,15.95
2022-11-10T18:27:13.157Z,24.08
2022-11-10T18:28:14.791Z,20.13
2022-11-10T18:29:16.147Z,11.30
2022-11-10T18:30:18.995Z,13.27
2022-11-10T18:31:20.585Z,14.75
2022-11-10T18:32:23.043Z,10.30
2022-11-10T18:33:24.663Z,10.77
2022-11-10T18:34:26.336Z,19.77
2022-11-10T18:35:31.923Z,26.17
2022-11-10T18:36:33.332Z,15.25
2022-11-10T18:37:38.771Z,19.35
2022-11-10T18:38:40.489Z,13.80
2022-11-10T18:39:42.313Z,12.70
2022-11-10T18:40:43.656Z,11.25
2022-11-10T18:41:52.197Z,12.90
2022-11-10T18:42:58.553Z,15.18
2022-11-10T18:44:02.086Z,26.42
2022-11-10T18:45:03.989Z,14.18
2022-11-10T18:46:05.473Z,35.42
2022-11-10T18:47:10.707Z,14.00
2022-11-10T18:48:12.045Z,11.25
2022-11-10T18:49:13.885Z,14.13
2022-11-10T18:50:15.348Z,13.75
2022-11-10T18:51:16.767Z,11.75
2022-11-10T18:52:18.300Z,16.52
2022-11-10T18:53:19.754Z,14.05
2022-11-10T18:54:21.364Z,21.58
2022-11-10T18:55:22.737Z,14.43
2022-11-10T18:56:25.723Z,13.68
2022-11-10T18:57:27.120Z,17.65
2022-11-10T18:58:28.496Z,10.85
